sensor_id;sensor_type;location;lat;lon;timestamp;temperature;humidity
24468;DHT22;12634;50.852;5.676;2023-02-15T00:00:19;2.20;99.90
24468;DHT22;12634;50.852;5.676;2023-02-15T00:02:46;2.30;99.90
24468;DHT22;12634;50.852;5.676;2023-02-15T00:05:15;2.70;99.90
24468;DHT22;12634;50.852;5.676;2023-02-15T00:07:42;2.80;99.90
24468;DHT22;12634;50.852;5.676;2023-02-15T00:10:10;2.70;99.90
24468;DHT22;12634;50.852;5.676;2023-02-15T00:12:37;2.60;99.90
24468;DHT22;12634;50.852;5.676;2023-02-15T00:15:05;2.70;99.90
24468;DHT22;12634;50.852;5.676;2023-02-15T00:17:32;2.60;99.90
24468;DHT22;12634;50.852;5.676;2023-02-15T00:19:59;2.60;99.90
24468;DHT22;12634;50.852;5.676;2023-02-15T00:22:28;2.50;99.90
24468;DHT22;12634;50.852;5.676;2023-02-15T00:24:55;2.40;99.90
24468;DHT22;12634;50.852;5.676;2023-02-15T00:27:22;2.60;99.90
24468;DHT22;12634;50.852;5.676;2023-02-15T00:29:50;2.60;99.90
24468;DHT22;12634;50.852;5.676;2023-02-15T00:32:17;2.50;99.90
24468;DHT22;12634;50.852;5.676;2023-02-15T00:34:44;2.40;99.90
24468;DHT22;12634;50.852;5.676;2023-02-15T00:37:11;2.70;99.90
24468;DHT22;12634;50.852;5.676;2023-02-15T00:39:40;2.70;99.90
24468;DHT22;12634;50.852;5.676;2023-02-15T00:42:07;2.60;99.90
24468;DHT22;12634;50.852;5.676;2023-02-15T00:44:34;2.40;99.90
24468;DHT22;12634;50.852;5.676;2023-02-15T00:47:01;2.20;99.90
24468;DHT22;12634;50.852;5.676;2023-02-15T00:49:28;2.10;99.90
24468;DHT22;12634;50.852;5.676;2023-02-15T00:51:56;2.10;99.90
24468;DHT22;12634;50.852;5.676;2023-02-15T00:54:23;2.20;99.90
24468;DHT22;12634;50.852;5.676;2023-02-15T00:56:51;2.20;99.90
24468;DHT22;12634;50.852;5.676;2023-02-15T00:59:18;2.20;99.90
24468;DHT22;12634;50.852;5.676;2023-02-15T01:01:46;2.10;99.90
24468;DHT22;12634;50.852;5.676;2023-02-15T01:04:13;2.10;99.90
24468;DHT22;12634;50.852;5.676;2023-02-15T01:06:40;2.30;99.90
24468;DHT22;12634;50.852;5.676;2023-02-15T01:09:07;2.20;99.90
24468;DHT22;12634;50.852;5.676;2023-02-15T01:11:34;2.30;99.90
24468;DHT22;12634;50.852;5.676;2023-02-15T01:14:03;2.10;99.90
24468;DHT22;12634;50.852;5.676;2023-02-15T01:16:33;2.00;99.90
24468;DHT22;12634;50.852;5.676;2023-02-15T01:19:00;1.90;99.90
24468;DHT22;12634;50.852;5.676;2023-02-15T01:21:28;1.90;99.90
24468;DHT22;12634;50.852;5.676;2023-02-15T01:23:55;1.80;99.90
24468;DHT22;12634;50.852;5.676;2023-02-15T01:26:22;1.90;99.90
24468;DHT22;12634;50.852;5.676;2023-02-15T01:28:49;2.00;99.90
24468;DHT22;12634;50.852;5.676;2023-02-15T01:31:20;2.00;99.90
24468;DHT22;12634;50.852;5.676;2023-02-15T01:33:47;1.80;99.90
24468;DHT22;12634;50.852;5.676;2023-02-15T01:36:15;1.80;99.90
24468;DHT22;12634;50.852;5.676;2023-02-15T01:38:43;2.00;99.90
24468;DHT22;12634;50.852;5.676;2023-02-15T01:41:10;2.20;99.90
24468;DHT22;12634;50.852;5.676;2023-02-15T01:43:55;2.20;99.90
24468;DHT22;12634;50.852;5.676;2023-02-15T01:46:27;2.00;99.90
24468;DHT22;12634;50.852;5.676;2023-02-15T01:49:00;1.90;99.90
24468;DHT22;12634;50.852;5.676;2023-02-15T01:51:31;1.70;99.90
24468;DHT22;12634;50.852;5.676;2023-02-15T01:54:03;1.70;99.90
24468;DHT22;12634;50.852;5.676;2023-02-15T01:56:34;1.60;99.90
24468;DHT22;12634;50.852;5.676;2023-02-15T01:59:06;1.70;99.90
24468;DHT22;12634;50.852;5.676;2023-02-15T02:01:36;1.70;99.90
24468;DHT22;12634;50.852;5.676;2023-02-15T02:04:09;1.80;99.90
24468;DHT22;12634;50.852;5.676;2023-02-15T02:06:38;2.00;99.90
24468;DHT22;12634;50.852;5.676;2023-02-15T02:09:06;2.60;99.90
24468;DHT22;12634;50.852;5.676;2023-02-15T02:11:35;2.70;99.90
24468;DHT22;12634;50.852;5.676;2023-02-15T02:14:02;2.50;99.90
24468;DHT22;12634;50.852;5.676;2023-02-15T02:16:38;2.30;99.90
24468;DHT22;12634;50.852;5.676;2023-02-15T02:19:27;2.30;99.90
24468;DHT22;12634;50.852;5.676;2023-02-15T02:22:18;2.20;99.90
24468;DHT22;12634;50.852;5.676;2023-02-15T02:27:58;1.90;99.90
24468;DHT22;12634;50.852;5.676;2023-02-15T02:30:49;2.00;99.90
24468;DHT22;12634;50.852;5.676;2023-02-15T02:33:32;2.10;99.90
24468;DHT22;12634;50.852;5.676;2023-02-15T02:36:09;2.10;99.90
24468;DHT22;12634;50.852;5.676;2023-02-15T02:38:47;2.00;99.90
24468;DHT22;12634;50.852;5.676;2023-02-15T02:41:20;2.30;99.90
24468;DHT22;12634;50.852;5.676;2023-02-15T02:43:54;2.30;99.90
24468;DHT22;12634;50.852;5.676;2023-02-15T02:46:31;2.40;99.90
24468;DHT22;12634;50.852;5.676;2023-02-15T02:49:01;2.20;99.90
24468;DHT22;12634;50.852;5.676;2023-02-15T02:51:29;2.00;99.90
24468;DHT22;12634;50.852;5.676;2023-02-15T02:53:59;1.80;99.90
24468;DHT22;12634;50.852;5.676;2023-02-15T02:56:30;1.70;99.90
24468;DHT22;12634;50.852;5.676;2023-02-15T02:59:01;1.50;99.90
24468;DHT22;12634;50.852;5.676;2023-02-15T03:01:32;1.60;99.90
24468;DHT22;12634;50.852;5.676;2023-02-15T03:04:05;1.90;99.90
24468;DHT22;12634;50.852;5.676;2023-02-15T03:06:41;2.20;99.90
24468;DHT22;12634;50.852;5.676;2023-02-15T03:09:12;2.10;99.90
24468;DHT22;12634;50.852;5.676;2023-02-15T03:11:47;2.50;99.90
24468;DHT22;12634;50.852;5.676;2023-02-15T03:14:16;2.60;99.90
24468;DHT22;12634;50.852;5.676;2023-02-15T03:16:47;2.20;99.90
24468;DHT22;12634;50.852;5.676;2023-02-15T03:19:19;2.00;99.90
24468;DHT22;12634;50.852;5.676;2023-02-15T03:21:48;1.90;99.90
24468;DHT22;12634;50.852;5.676;2023-02-15T03:24:26;1.70;99.90
24468;DHT22;12634;50.852;5.676;2023-02-15T03:26:56;1.80;99.90
24468;DHT22;12634;50.852;5.676;2023-02-15T03:29:26;1.80;99.90
24468;DHT22;12634;50.852;5.676;2023-02-15T03:31:58;1.70;99.90
24468;DHT22;12634;50.852;5.676;2023-02-15T03:34:28;1.70;99.90
24468;DHT22;12634;50.852;5.676;2023-02-15T03:37:00;2.00;99.90
24468;DHT22;12634;50.852;5.676;2023-02-15T03:39:32;1.90;99.90
24468;DHT22;12634;50.852;5.676;2023-02-15T03:42:07;2.20;99.90
24468;DHT22;12634;50.852;5.676;2023-02-15T03:44:42;2.30;99.90
24468;DHT22;12634;50.852;5.676;2023-02-15T03:47:15;2.50;99.90
24468;DHT22;12634;50.852;5.676;2023-02-15T03:49:48;2.80;99.90
24468;DHT22;12634;50.852;5.676;2023-02-15T03:52:16;2.80;99.90
24468;DHT22;12634;50.852;5.676;2023-02-15T03:54:43;2.70;99.90
24468;DHT22;12634;50.852;5.676;2023-02-15T03:57:15;2.60;99.90
24468;DHT22;12634;50.852;5.676;2023-02-15T04:00:02;2.50;99.90
24468;DHT22;12634;50.852;5.676;2023-02-15T04:03:09;2.50;99.90
24468;DHT22;12634;50.852;5.676;2023-02-15T04:05:39;2.20;99.90
24468;DHT22;12634;50.852;5.676;2023-02-15T04:08:06;2.10;99.90
24468;DHT22;12634;50.852;5.676;2023-02-15T04:10:34;2.10;99.90
24468;DHT22;12634;50.852;5.676;2023-02-15T04:13:18;2.30;99.90
24468;DHT22;12634;50.852;5.676;2023-02-15T04:15:46;2.40;99.90
24468;DHT22;12634;50.852;5.676;2023-02-15T04:18:31;2.20;99.90
24468;DHT22;12634;50.852;5.676;2023-02-15T04:21:19;1.90;99.90
24468;DHT22;12634;50.852;5.676;2023-02-15T04:24:04;1.90;99.90
24468;DHT22;12634;50.852;5.676;2023-02-15T04:26:49;1.90;99.90
24468;DHT22;12634;50.852;5.676;2023-02-15T04:29:18;2.10;99.90
24468;DHT22;12634;50.852;5.676;2023-02-15T04:31:46;2.00;99.90
24468;DHT22;12634;50.852;5.676;2023-02-15T04:34:13;2.00;99.90
24468;DHT22;12634;50.852;5.676;2023-02-15T04:36:42;2.00;99.90
24468;DHT22;12634;50.852;5.676;2023-02-15T04:39:12;2.40;99.90
24468;DHT22;12634;50.852;5.676;2023-02-15T04:41:40;2.70;99.90
24468;DHT22;12634;50.852;5.676;2023-02-15T04:44:07;2.70;99.90
24468;DHT22;12634;50.852;5.676;2023-02-15T04:46:34;2.60;99.90
24468;DHT22;12634;50.852;5.676;2023-02-15T04:49:02;2.40;99.90
24468;DHT22;12634;50.852;5.676;2023-02-15T04:51:29;2.10;99.90
24468;DHT22;12634;50.852;5.676;2023-02-15T04:53:58;2.00;99.90
24468;DHT22;12634;50.852;5.676;2023-02-15T04:56:25;1.70;99.90
24468;DHT22;12634;50.852;5.676;2023-02-15T04:58:52;1.60;99.90
24468;DHT22;12634;50.852;5.676;2023-02-15T05:01:19;1.50;99.90
24468;DHT22;12634;50.852;5.676;2023-02-15T05:03:47;1.50;99.90
24468;DHT22;12634;50.852;5.676;2023-02-15T05:06:14;1.80;99.90
24468;DHT22;12634;50.852;5.676;2023-02-15T05:08:41;2.00;99.90
24468;DHT22;12634;50.852;5.676;2023-02-15T05:11:10;1.90;99.90
24468;DHT22;12634;50.852;5.676;2023-02-15T05:13:37;1.90;99.90
24468;DHT22;12634;50.852;5.676;2023-02-15T05:16:04;2.00;99.90
24468;DHT22;12634;50.852;5.676;2023-02-15T05:18:31;1.80;99.90
24468;DHT22;12634;50.852;5.676;2023-02-15T05:20:59;1.70;99.90
24468;DHT22;12634;50.852;5.676;2023-02-15T05:23:26;1.70;99.90
24468;DHT22;12634;50.852;5.676;2023-02-15T05:25:53;1.60;99.90
24468;DHT22;12634;50.852;5.676;2023-02-15T05:28:54;1.80;99.90
24468;DHT22;12634;50.852;5.676;2023-02-15T05:31:21;1.80;99.90
24468;DHT22;12634;50.852;5.676;2023-02-15T05:33:48;2.00;99.90
24468;DHT22;12634;50.852;5.676;2023-02-15T05:36:15;2.00;99.90
24468;DHT22;12634;50.852;5.676;2023-02-15T05:38:42;1.60;99.90
24468;DHT22;12634;50.852;5.676;2023-02-15T05:41:10;1.60;99.90
24468;DHT22;12634;50.852;5.676;2023-02-15T05:43:38;1.80;99.90
24468;DHT22;12634;50.852;5.676;2023-02-15T05:46:08;1.70;99.90
24468;DHT22;12634;50.852;5.676;2023-02-15T05:48:35;1.70;99.90
24468;DHT22;12634;50.852;5.676;2023-02-15T05:51:06;1.70;99.90
24468;DHT22;12634;50.852;5.676;2023-02-15T05:53:35;1.70;99.90
24468;DHT22;12634;50.852;5.676;2023-02-15T05:56:04;1.70;99.90
24468;DHT22;12634;50.852;5.676;2023-02-15T05:58:33;1.70;99.90
24468;DHT22;12634;50.852;5.676;2023-02-15T06:01:09;1.60;99.90
24468;DHT22;12634;50.852;5.676;2023-02-15T06:03:36;1.40;99.90
24468;DHT22;12634;50.852;5.676;2023-02-15T06:06:03;1.50;99.90
24468;DHT22;12634;50.852;5.676;2023-02-15T06:08:30;1.70;99.90
24468;DHT22;12634;50.852;5.676;2023-02-15T06:10:58;1.70;99.90
24468;DHT22;12634;50.852;5.676;2023-02-15T06:13:25;1.40;99.90
24468;DHT22;12634;50.852;5.676;2023-02-15T06:15:52;1.40;99.90
24468;DHT22;12634;50.852;5.676;2023-02-15T06:18:21;1.50;99.90
24468;DHT22;12634;50.852;5.676;2023-02-15T06:20:48;1.50;99.90
24468;DHT22;12634;50.852;5.676;2023-02-15T06:23:16;1.40;99.90
24468;DHT22;12634;50.852;5.676;2023-02-15T06:25:44;1.20;99.90
24468;DHT22;12634;50.852;5.676;2023-02-15T06:28:12;1.10;99.90
24468;DHT22;12634;50.852;5.676;2023-02-15T06:30:39;1.30;99.90
24468;DHT22;12634;50.852;5.676;2023-02-15T06:33:06;1.30;99.90
24468;DHT22;12634;50.852;5.676;2023-02-15T06:35:35;1.50;99.90
24468;DHT22;12634;50.852;5.676;2023-02-15T06:38:02;1.80;99.90
24468;DHT22;12634;50.852;5.676;2023-02-15T06:40:29;2.00;99.90
24468;DHT22;12634;50.852;5.676;2023-02-15T06:42:56;2.00;99.90
24468;DHT22;12634;50.852;5.676;2023-02-15T06:45:24;1.90;99.90
24468;DHT22;12634;50.852;5.676;2023-02-15T06:47:51;1.80;99.90
24468;DHT22;12634;50.852;5.676;2023-02-15T06:50:18;1.90;99.90
24468;DHT22;12634;50.852;5.676;2023-02-15T06:52:47;1.80;99.90
24468;DHT22;12634;50.852;5.676;2023-02-15T06:55:14;1.60;99.90
24468;DHT22;12634;50.852;5.676;2023-02-15T06:57:41;1.60;99.90
24468;DHT22;12634;50.852;5.676;2023-02-15T07:00:09;1.60;99.90
24468;DHT22;12634;50.852;5.676;2023-02-15T07:02:37;1.70;99.90
24468;DHT22;12634;50.852;5.676;2023-02-15T07:05:05;1.90;99.90
24468;DHT22;12634;50.852;5.676;2023-02-15T07:07:32;2.00;99.90
24468;DHT22;12634;50.852;5.676;2023-02-15T07:10:01;2.40;99.90
24468;DHT22;12634;50.852;5.676;2023-02-15T07:12:28;2.70;99.90
24468;DHT22;12634;50.852;5.676;2023-02-15T07:15:11;3.20;99.90
24468;DHT22;12634;50.852;5.676;2023-02-15T07:17:39;3.60;99.90
24468;DHT22;12634;50.852;5.676;2023-02-15T07:20:08;3.80;99.90
24468;DHT22;12634;50.852;5.676;2023-02-15T07:22:36;4.00;99.90
24468;DHT22;12634;50.852;5.676;2023-02-15T07:25:06;4.20;99.90
24468;DHT22;12634;50.852;5.676;2023-02-15T07:27:34;4.40;99.90
24468;DHT22;12634;50.852;5.676;2023-02-15T07:30:02;4.50;99.90
24468;DHT22;12634;50.852;5.676;2023-02-15T07:32:30;4.80;99.90
24468;DHT22;12634;50.852;5.676;2023-02-15T07:34:57;5.10;99.90
24468;DHT22;12634;50.852;5.676;2023-02-15T07:37:25;5.20;99.90
24468;DHT22;12634;50.852;5.676;2023-02-15T07:39:53;5.20;99.90
24468;DHT22;12634;50.852;5.676;2023-02-15T07:42:21;5.30;99.90
24468;DHT22;12634;50.852;5.676;2023-02-15T07:44:48;5.60;99.90
24468;DHT22;12634;50.852;5.676;2023-02-15T07:47:16;5.70;99.90
24468;DHT22;12634;50.852;5.676;2023-02-15T07:49:43;6.00;99.90
24468;DHT22;12634;50.852;5.676;2023-02-15T07:52:10;6.00;99.90
24468;DHT22;12634;50.852;5.676;2023-02-15T07:54:37;6.30;99.90
24468;DHT22;12634;50.852;5.676;2023-02-15T07:57:04;6.20;99.90
24468;DHT22;12634;50.852;5.676;2023-02-15T07:59:33;6.40;99.90
24468;DHT22;12634;50.852;5.676;2023-02-15T08:02:00;6.50;99.90
24468;DHT22;12634;50.852;5.676;2023-02-15T08:04:28;7.00;99.90
24468;DHT22;12634;50.852;5.676;2023-02-15T08:06:55;7.80;99.90
24468;DHT22;12634;50.852;5.676;2023-02-15T08:09:22;8.10;99.90
24468;DHT22;12634;50.852;5.676;2023-02-15T08:11:50;8.30;99.90
24468;DHT22;12634;50.852;5.676;2023-02-15T08:14:19;8.30;99.90
24468;DHT22;12634;50.852;5.676;2023-02-15T08:16:50;8.50;99.90
24468;DHT22;12634;50.852;5.676;2023-02-15T08:19:19;8.70;99.90
24468;DHT22;12634;50.852;5.676;2023-02-15T08:21:49;8.70;99.90
24468;DHT22;12634;50.852;5.676;2023-02-15T08:24:18;8.30;99.90
24468;DHT22;12634;50.852;5.676;2023-02-15T08:26:46;8.20;99.90
24468;DHT22;12634;50.852;5.676;2023-02-15T08:29:15;7.70;99.90
24468;DHT22;12634;50.852;5.676;2023-02-15T08:31:43;7.40;99.90
24468;DHT22;12634;50.852;5.676;2023-02-15T08:34:16;7.40;99.90
24468;DHT22;12634;50.852;5.676;2023-02-15T08:36:44;7.50;99.90
24468;DHT22;12634;50.852;5.676;2023-02-15T08:39:12;7.20;99.90
24468;DHT22;12634;50.852;5.676;2023-02-15T08:41:44;7.20;99.90
24468;DHT22;12634;50.852;5.676;2023-02-15T08:44:11;7.30;99.90
24468;DHT22;12634;50.852;5.676;2023-02-15T08:46:40;7.20;99.90
24468;DHT22;12634;50.852;5.676;2023-02-15T08:49:08;7.00;99.90
24468;DHT22;12634;50.852;5.676;2023-02-15T08:51:38;7.00;99.90
24468;DHT22;12634;50.852;5.676;2023-02-15T08:54:06;7.20;99.90
24468;DHT22;12634;50.852;5.676;2023-02-15T08:56:36;7.30;99.90
24468;DHT22;12634;50.852;5.676;2023-02-15T08:59:05;7.50;99.90
24468;DHT22;12634;50.852;5.676;2023-02-15T09:01:34;7.60;99.90
24468;DHT22;12634;50.852;5.676;2023-02-15T09:04:02;7.70;99.90
24468;DHT22;12634;50.852;5.676;2023-02-15T09:06:31;7.90;99.90
24468;DHT22;12634;50.852;5.676;2023-02-15T09:08:59;8.00;99.90
24468;DHT22;12634;50.852;5.676;2023-02-15T09:11:28;8.10;99.90
24468;DHT22;12634;50.852;5.676;2023-02-15T09:13:57;8.30;99.90
24468;DHT22;12634;50.852;5.676;2023-02-15T09:16:27;8.50;99.90
24468;DHT22;12634;50.852;5.676;2023-02-15T09:18:55;8.90;99.90
24468;DHT22;12634;50.852;5.676;2023-02-15T09:21:24;9.30;99.90
24468;DHT22;12634;50.852;5.676;2023-02-15T09:23:55;9.50;99.90
24468;DHT22;12634;50.852;5.676;2023-02-15T09:26:24;10.20;99.90
24468;DHT22;12634;50.852;5.676;2023-02-15T09:28:52;10.20;99.90
24468;DHT22;12634;50.852;5.676;2023-02-15T09:31:23;10.20;99.90
24468;DHT22;12634;50.852;5.676;2023-02-15T09:33:50;10.60;99.90
24468;DHT22;12634;50.852;5.676;2023-02-15T09:36:20;10.50;99.90
24468;DHT22;12634;50.852;5.676;2023-02-15T09:38:52;10.60;99.90
24468;DHT22;12634;50.852;5.676;2023-02-15T09:44:36;10.60;99.90
24468;DHT22;12634;50.852;5.676;2023-02-15T09:47:18;11.00;99.90
24468;DHT22;12634;50.852;5.676;2023-02-15T09:49:55;11.60;99.90
24468;DHT22;12634;50.852;5.676;2023-02-15T09:52:34;11.90;99.90
24468;DHT22;12634;50.852;5.676;2023-02-15T09:55:20;11.70;99.90
24468;DHT22;12634;50.852;5.676;2023-02-15T09:57:56;11.70;99.90
24468;DHT22;12634;50.852;5.676;2023-02-15T10:00:30;12.20;99.90
24468;DHT22;12634;50.852;5.676;2023-02-15T10:06:07;12.20;99.90
24468;DHT22;12634;50.852;5.676;2023-02-15T10:08:55;12.50;99.90
24468;DHT22;12634;50.852;5.676;2023-02-15T10:11:33;12.90;99.90
24468;DHT22;12634;50.852;5.676;2023-02-15T10:14:31;13.00;99.90
24468;DHT22;12634;50.852;5.676;2023-02-15T10:17:10;13.20;99.90
24468;DHT22;12634;50.852;5.676;2023-02-15T10:19:44;13.40;99.90
24468;DHT22;12634;50.852;5.676;2023-02-15T10:22:21;13.40;99.90
24468;DHT22;12634;50.852;5.676;2023-02-15T10:25:01;13.80;99.90
24468;DHT22;12634;50.852;5.676;2023-02-15T10:27:41;13.70;99.90
24468;DHT22;12634;50.852;5.676;2023-02-15T10:30:15;13.40;99.90
24468;DHT22;12634;50.852;5.676;2023-02-15T10:32:51;13.30;99.90
24468;DHT22;12634;50.852;5.676;2023-02-15T10:35:25;13.60;99.90
24468;DHT22;12634;50.852;5.676;2023-02-15T10:38:09;13.60;99.90
24468;DHT22;12634;50.852;5.676;2023-02-15T10:40:48;13.40;99.90
24468;DHT22;12634;50.852;5.676;2023-02-15T10:43:27;13.00;99.90
24468;DHT22;12634;50.852;5.676;2023-02-15T10:46:06;13.20;99.90
24468;DHT22;12634;50.852;5.676;2023-02-15T10:49:04;13.30;99.90
24468;DHT22;12634;50.852;5.676;2023-02-15T10:51:44;13.10;99.90
24468;DHT22;12634;50.852;5.676;2023-02-15T10:54:24;13.60;99.90
24468;DHT22;12634;50.852;5.676;2023-02-15T10:57:02;13.40;99.90
24468;DHT22;12634;50.852;5.676;2023-02-15T10:59:47;13.50;99.90
24468;DHT22;12634;50.852;5.676;2023-02-15T11:02:26;13.50;99.90
24468;DHT22;12634;50.852;5.676;2023-02-15T11:05:16;13.60;99.90
24468;DHT22;12634;50.852;5.676;2023-02-15T11:07:47;13.60;99.90
24468;DHT22;12634;50.852;5.676;2023-02-15T11:10:26;13.60;99.90
24468;DHT22;12634;50.852;5.676;2023-02-15T11:12:55;13.80;99.90
24468;DHT22;12634;50.852;5.676;2023-02-15T11:15:29;13.90;99.90
24468;DHT22;12634;50.852;5.676;2023-02-15T11:18:04;13.50;99.90
24468;DHT22;12634;50.852;5.676;2023-02-15T11:20:35;13.60;99.90
24468;DHT22;12634;50.852;5.676;2023-02-15T11:23:13;13.80;99.90
24468;DHT22;12634;50.852;5.676;2023-02-15T11:25:44;14.10;99.90
24468;DHT22;12634;50.852;5.676;2023-02-15T11:28:18;13.90;99.90
24468;DHT22;12634;50.852;5.676;2023-02-15T11:30:50;13.90;99.90
24468;DHT22;12634;50.852;5.676;2023-02-15T11:33:22;14.10;99.90
24468;DHT22;12634;50.852;5.676;2023-02-15T11:35:55;14.20;99.90
24468;DHT22;12634;50.852;5.676;2023-02-15T11:38:28;14.10;99.90
24468;DHT22;12634;50.852;5.676;2023-02-15T11:40:59;13.90;99.90
24468;DHT22;12634;50.852;5.676;2023-02-15T11:43:33;14.20;99.90
24468;DHT22;12634;50.852;5.676;2023-02-15T11:46:00;14.50;99.90
24468;DHT22;12634;50.852;5.676;2023-02-15T11:48:30;14.50;99.90
24468;DHT22;12634;50.852;5.676;2023-02-15T11:50:58;14.80;99.90
24468;DHT22;12634;50.852;5.676;2023-02-15T11:53:30;14.70;99.90
24468;DHT22;12634;50.852;5.676;2023-02-15T11:55:58;15.00;99.90
24468;DHT22;12634;50.852;5.676;2023-02-15T11:58:30;14.80;99.90
24468;DHT22;12634;50.852;5.676;2023-02-15T12:01:06;14.70;99.90
24468;DHT22;12634;50.852;5.676;2023-02-15T12:03:44;14.90;99.90
24468;DHT22;12634;50.852;5.676;2023-02-15T12:06:21;14.90;99.90
24468;DHT22;12634;50.852;5.676;2023-02-15T12:08:56;15.10;99.90
24468;DHT22;12634;50.852;5.676;2023-02-15T12:11:30;15.50;99.90
24468;DHT22;12634;50.852;5.676;2023-02-15T12:14:01;15.40;99.90
24468;DHT22;12634;50.852;5.676;2023-02-15T12:16:33;15.60;99.90
24468;DHT22;12634;50.852;5.676;2023-02-15T12:19:03;15.20;99.90
24468;DHT22;12634;50.852;5.676;2023-02-15T12:21:33;15.00;99.90
24468;DHT22;12634;50.852;5.676;2023-02-15T12:24:03;14.90;99.90
24468;DHT22;12634;50.852;5.676;2023-02-15T12:26:37;14.70;99.90
24468;DHT22;12634;50.852;5.676;2023-02-15T12:29:12;15.40;99.90
24468;DHT22;12634;50.852;5.676;2023-02-15T12:31:44;15.50;99.90
24468;DHT22;12634;50.852;5.676;2023-02-15T12:34:18;15.70;99.90
24468;DHT22;12634;50.852;5.676;2023-02-15T12:36:48;15.80;99.90
24468;DHT22;12634;50.852;5.676;2023-02-15T12:39:19;15.60;99.90
24468;DHT22;12634;50.852;5.676;2023-02-15T12:42:01;15.60;99.90
24468;DHT22;12634;50.852;5.676;2023-02-15T12:44:31;15.50;99.90
24468;DHT22;12634;50.852;5.676;2023-02-15T12:47:01;15.40;99.90
24468;DHT22;12634;50.852;5.676;2023-02-15T12:49:32;15.50;99.90
24468;DHT22;12634;50.852;5.676;2023-02-15T12:52:00;15.70;99.90
24468;DHT22;12634;50.852;5.676;2023-02-15T12:54:39;15.60;99.90
24468;DHT22;12634;50.852;5.676;2023-02-15T12:57:20;15.60;99.90
24468;DHT22;12634;50.852;5.676;2023-02-15T12:59:49;15.90;99.90
24468;DHT22;12634;50.852;5.676;2023-02-15T13:02:22;16.00;99.90
24468;DHT22;12634;50.852;5.676;2023-02-15T13:04:51;16.10;99.90
24468;DHT22;12634;50.852;5.676;2023-02-15T13:07:19;15.70;99.90
24468;DHT22;12634;50.852;5.676;2023-02-15T13:09:47;15.70;99.90
24468;DHT22;12634;50.852;5.676;2023-02-15T13:12:19;16.10;99.90
24468;DHT22;12634;50.852;5.676;2023-02-15T13:14:49;16.10;99.90
24468;DHT22;12634;50.852;5.676;2023-02-15T13:17:20;15.90;99.90
24468;DHT22;12634;50.852;5.676;2023-02-15T13:19:52;16.10;99.90
24468;DHT22;12634;50.852;5.676;2023-02-15T13:22:25;15.60;99.90
24468;DHT22;12634;50.852;5.676;2023-02-15T13:24:55;15.80;99.90
24468;DHT22;12634;50.852;5.676;2023-02-15T13:27:34;16.00;99.90
24468;DHT22;12634;50.852;5.676;2023-02-15T13:30:08;16.00;99.90
24468;DHT22;12634;50.852;5.676;2023-02-15T13:32:38;15.70;99.90
24468;DHT22;12634;50.852;5.676;2023-02-15T13:35:15;15.40;99.90
24468;DHT22;12634;50.852;5.676;2023-02-15T13:38:09;15.20;99.90
24468;DHT22;12634;50.852;5.676;2023-02-15T13:40:46;15.20;99.90
24468;DHT22;12634;50.852;5.676;2023-02-15T13:43:27;15.20;99.90
24468;DHT22;12634;50.852;5.676;2023-02-15T13:46:08;15.50;99.90
24468;DHT22;12634;50.852;5.676;2023-02-15T13:48:44;15.70;99.90
24468;DHT22;12634;50.852;5.676;2023-02-15T13:51:21;15.50;99.90
24468;DHT22;12634;50.852;5.676;2023-02-15T13:54:05;15.80;99.90
24468;DHT22;12634;50.852;5.676;2023-02-15T13:56:46;15.70;99.90
24468;DHT22;12634;50.852;5.676;2023-02-15T13:59:38;15.60;99.90
24468;DHT22;12634;50.852;5.676;2023-02-15T14:02:38;15.60;99.90
24468;DHT22;12634;50.852;5.676;2023-02-15T14:05:23;15.40;99.90
24468;DHT22;12634;50.852;5.676;2023-02-15T14:08:04;15.50;99.90
24468;DHT22;12634;50.852;5.676;2023-02-15T14:10:44;15.30;99.90
24468;DHT22;12634;50.852;5.676;2023-02-15T14:13:45;15.10;99.90
24468;DHT22;12634;50.852;5.676;2023-02-15T14:16:23;15.50;99.90
24468;DHT22;12634;50.852;5.676;2023-02-15T14:18:57;15.70;99.90
24468;DHT22;12634;50.852;5.676;2023-02-15T14:21:31;15.50;99.90
24468;DHT22;12634;50.852;5.676;2023-02-15T14:24:14;15.20;99.90
24468;DHT22;12634;50.852;5.676;2023-02-15T14:26:48;14.80;99.90
24468;DHT22;12634;50.852;5.676;2023-02-15T14:29:25;14.90;99.90
24468;DHT22;12634;50.852;5.676;2023-02-15T14:31:58;14.80;99.90
24468;DHT22;12634;50.852;5.676;2023-02-15T14:34:31;14.70;99.90
24468;DHT22;12634;50.852;5.676;2023-02-15T14:37:04;14.70;99.90
24468;DHT22;12634;50.852;5.676;2023-02-15T14:39:41;14.70;99.90
24468;DHT22;12634;50.852;5.676;2023-02-15T14:42:36;14.60;99.90
24468;DHT22;12634;50.852;5.676;2023-02-15T14:45:14;14.60;99.90
24468;DHT22;12634;50.852;5.676;2023-02-15T14:47:44;14.50;99.90
24468;DHT22;12634;50.852;5.676;2023-02-15T14:50:37;14.50;99.90
24468;DHT22;12634;50.852;5.676;2023-02-15T14:53:32;14.60;99.90
24468;DHT22;12634;50.852;5.676;2023-02-15T14:56:23;14.80;99.90
24468;DHT22;12634;50.852;5.676;2023-02-15T15:01:41;14.50;99.90
24468;DHT22;12634;50.852;5.676;2023-02-15T15:04:11;14.40;99.90
24468;DHT22;12634;50.852;5.676;2023-02-15T15:06:41;14.30;99.90
24468;DHT22;12634;50.852;5.676;2023-02-15T15:09:12;14.30;99.90
24468;DHT22;12634;50.852;5.676;2023-02-15T15:11:44;14.40;99.90
24468;DHT22;12634;50.852;5.676;2023-02-15T15:14:37;14.30;99.90
24468;DHT22;12634;50.852;5.676;2023-02-15T15:17:06;14.20;99.90
24468;DHT22;12634;50.852;5.676;2023-02-15T15:20:01;14.10;99.90
24468;DHT22;12634;50.852;5.676;2023-02-15T15:22:30;14.00;99.90
24468;DHT22;12634;50.852;5.676;2023-02-15T15:24:58;13.90;99.90
24468;DHT22;12634;50.852;5.676;2023-02-15T15:27:43;13.90;99.90
24468;DHT22;12634;50.852;5.676;2023-02-15T15:30:48;13.80;99.90
24468;DHT22;12634;50.852;5.676;2023-02-15T15:40:00;13.60;99.90
24468;DHT22;12634;50.852;5.676;2023-02-15T15:42:37;13.40;99.90
24468;DHT22;12634;50.852;5.676;2023-02-15T15:45:41;13.30;99.90
24468;DHT22;12634;50.852;5.676;2023-02-15T15:48:28;13.10;99.90
24468;DHT22;12634;50.852;5.676;2023-02-15T15:51:02;13.10;99.90
24468;DHT22;12634;50.852;5.676;2023-02-15T15:53:34;13.00;99.90
24468;DHT22;12634;50.852;5.676;2023-02-15T15:56:08;12.90;99.90
24468;DHT22;12634;50.852;5.676;2023-02-15T15:58:40;12.80;99.90
24468;DHT22;12634;50.852;5.676;2023-02-15T16:01:10;12.80;99.90
24468;DHT22;12634;50.852;5.676;2023-02-15T16:03:48;12.80;99.90
24468;DHT22;12634;50.852;5.676;2023-02-15T16:06:28;12.60;99.90
24468;DHT22;12634;50.852;5.676;2023-02-15T16:08:55;12.50;99.90
24468;DHT22;12634;50.852;5.676;2023-02-15T16:11:25;12.30;99.90
24468;DHT22;12634;50.852;5.676;2023-02-15T16:13:54;12.30;99.90
24468;DHT22;12634;50.852;5.676;2023-02-15T16:16:25;12.20;99.90
24468;DHT22;12634;50.852;5.676;2023-02-15T16:18:54;12.20;99.90
24468;DHT22;12634;50.852;5.676;2023-02-15T16:21:28;12.20;99.90
24468;DHT22;12634;50.852;5.676;2023-02-15T16:24:12;12.30;99.90
24468;DHT22;12634;50.852;5.676;2023-02-15T16:26:59;12.00;99.90
24468;DHT22;12634;50.852;5.676;2023-02-15T16:29:32;11.90;99.90
24468;DHT22;12634;50.852;5.676;2023-02-15T16:32:03;11.80;99.90